createdAt,value
2019-04-20T00:01:40.875Z,13.73
2019-04-20T00:06:48.366Z,13.69
2019-04-20T00:12:01.511Z,13.58
2019-04-20T00:16:54.882Z,13.50
2019-04-20T00:22:07.038Z,13.52
2019-04-20T00:27:32.730Z,13.53
2019-04-20T00:32:29.985Z,13.50
2019-04-20T00:37:21.120Z,13.50
2019-04-20T00:42:33.137Z,13.39
2019-04-20T00:47:41.883Z,13.31
2019-04-20T00:52:51.355Z,13.16
2019-04-20T00:57:48.729Z,13.20
2019-04-20T01:02:54.279Z,13.17
2019-04-20T01:07:57.010Z,13.09
2019-04-20T01:13:04.574Z,13.03
2019-04-20T01:18:02.664Z,12.92
2019-04-20T01:23:10.088Z,12.91
2019-04-20T01:28:29.943Z,12.87
2019-04-20T01:33:31.711Z,12.85
2019-04-20T01:38:34.656Z,12.75
2019-04-20T01:43:27.065Z,12.70
2019-04-20T01:48:35.328Z,12.65
2019-04-20T01:53:55.945Z,12.63
2019-04-20T01:58:58.294Z,12.58
2019-04-20T02:03:56.788Z,12.60
2019-04-20T02:09:04.629Z,12.57
2019-04-20T02:14:08.295Z,12.56
2019-04-20T02:19:27.836Z,12.55
2019-04-20T02:24:16.478Z,12.48
2019-04-20T02:29:43.156Z,12.37
2019-04-20T02:34:59.359Z,12.29
2019-04-20T02:45:20.446Z,12.32
2019-04-20T02:50:20.557Z,12.31
2019-04-20T02:55:26.903Z,12.26
2019-04-20T03:05:14.386Z,12.31
2019-04-20T03:10:39.383Z,12.27
2019-04-20T03:15:37.999Z,12.24
2019-04-20T03:20:41.683Z,12.20
2019-04-20T03:26:00.592Z,12.12
2019-04-20T03:36:21.758Z,12.04
2019-04-20T03:41:05.243Z,12.04
2019-04-20T03:46:03.171Z,12.08
2019-04-20T03:51:30.144Z,11.95
2019-04-20T03:56:47.391Z,11.91
2019-04-20T04:06:59.777Z,11.89
2019-04-20T04:12:37.171Z,11.85
2019-04-20T04:17:41.585Z,11.81
2019-04-20T04:23:00.413Z,11.72
2019-04-20T04:28:01.342Z,11.68
2019-04-20T04:33:44.511Z,11.70
2019-04-20T04:38:24.060Z,11.66
2019-04-20T04:43:22.467Z,11.62
2019-04-20T04:48:14.726Z,11.57
2019-04-20T04:53:28.458Z,11.55
2019-04-20T04:58:19.530Z,11.54
2019-04-20T05:03:40.234Z,11.51
2019-04-20T05:08:36.812Z,11.51
2019-04-20T05:13:41.888Z,11.56
2019-04-20T05:19:05.038Z,11.63
2019-04-20T05:24:09.971Z,11.74
2019-04-20T05:29:04.454Z,11.79
2019-04-20T05:34:25.484Z,11.87
2019-04-20T05:44:38.867Z,11.96
2019-04-20T05:49:34.908Z,12.09
2019-04-20T05:54:48.989Z,12.17
2019-04-20T05:59:55.770Z,12.28
2019-04-20T06:10:01.969Z,12.52
2019-04-20T06:15:15.388Z,12.61
2019-04-20T06:20:33.945Z,12.74
2019-04-20T06:26:01.483Z,12.86
2019-04-20T06:30:45.530Z,12.97
2019-04-20T06:46:12.958Z,13.44
2019-04-20T06:51:18.999Z,13.62
2019-04-20T06:56:24.322Z,13.88
2019-04-20T07:01:37.517Z,14.17
2019-04-20T07:11:42.545Z,14.81
2019-04-20T07:16:53.159Z,15.15
2019-04-20T07:22:25.057Z,15.49
2019-04-20T07:27:19.693Z,15.97
2019-04-20T07:32:13.256Z,16.34
2019-04-20T07:42:40.736Z,17.23
2019-04-20T07:47:47.813Z,17.74
2019-04-20T07:52:42.265Z,18.07
2019-04-20T07:57:50.053Z,18.46
2019-04-20T08:03:22.092Z,18.89
2019-04-20T08:08:27.172Z,19.24
2019-04-20T08:18:41.598Z,19.90
2019-04-20T08:23:41.761Z,20.21
2019-04-20T08:28:36.014Z,20.51
2019-04-20T08:34:01.892Z,20.90
2019-04-20T08:44:30.934Z,21.46
2019-04-20T08:49:10.033Z,21.88
2019-04-20T08:54:12.011Z,22.21
2019-04-20T08:59:00.333Z,22.67
2019-04-20T09:04:12.721Z,22.65
2019-04-20T09:09:37.555Z,23.18
2019-04-20T09:14:21.349Z,23.59
2019-04-20T09:19:36.550Z,23.90
2019-04-20T09:24:52.763Z,24.16
2019-04-20T09:29:44.883Z,24.28
2019-04-20T09:35:01.072Z,24.73
2019-04-20T11:01:22.078Z,27.49
2019-04-20T11:06:26.814Z,28.13
2019-04-20T11:11:32.045Z,28.85
2019-04-20T11:16:36.134Z,28.91
2019-04-20T11:21:40.817Z,29.24
2019-04-20T11:26:45.065Z,29.64
2019-04-20T11:31:53.065Z,29.65
2019-04-20T11:36:55.125Z,29.62
2019-04-20T11:41:59.523Z,29.29
2019-04-20T11:47:03.136Z,29.78
2019-04-20T11:52:07.710Z,30.00
2019-04-20T11:57:11.537Z,30.27
2019-04-20T12:02:25.510Z,30.48
2019-04-20T12:07:24.989Z,31.16
2019-04-20T12:12:38.039Z,30.84
2019-04-20T12:17:33.778Z,30.69
2019-04-20T12:22:37.246Z,30.87
2019-04-20T12:27:47.537Z,31.53
2019-04-20T12:32:51.923Z,31.72
2019-04-20T12:37:51.369Z,32.27
2019-04-20T12:42:55.064Z,31.93
2019-04-20T12:47:59.592Z,32.33
2019-04-20T12:53:04.367Z,32.33
2019-04-20T12:58:08.331Z,32.49
2019-04-20T13:03:11.978Z,32.63
2019-04-20T13:08:21.734Z,29.73
2019-04-20T13:13:36.520Z,30.84
2019-04-20T13:18:45.440Z,30.86
2019-04-20T13:23:49.184Z,31.72
2019-04-20T13:28:52.955Z,30.40
2019-04-20T13:33:57.144Z,31.81
2019-04-20T13:39:01.761Z,31.91
2019-04-20T13:44:06.533Z,31.71
2019-04-20T13:49:11.163Z,32.25
2019-04-20T13:54:18.939Z,32.23
2019-04-20T13:59:25.512Z,32.00
2019-04-20T14:04:31.006Z,31.85
2019-04-20T14:09:35.403Z,32.18
2019-04-20T14:14:39.277Z,31.95
2019-04-20T14:19:43.158Z,32.32
2019-04-20T14:24:46.864Z,31.38
2019-04-20T14:29:50.914Z,32.14
2019-04-20T14:34:54.547Z,30.74
2019-04-20T14:39:58.510Z,30.68
2019-04-20T14:45:02.097Z,30.82
2019-04-20T14:50:07.647Z,30.34
2019-04-20T14:55:15.232Z,31.04
2019-04-20T15:00:37.491Z,31.10
2019-04-20T15:05:43.252Z,30.80
2019-04-20T15:10:46.951Z,30.21
2019-04-20T15:15:50.711Z,29.62
2019-04-20T15:20:55.869Z,29.05
2019-04-20T15:26:00.289Z,29.49
2019-04-20T15:31:03.854Z,28.09
2019-04-20T15:36:08.286Z,28.81
2019-04-20T15:41:13.862Z,27.76
2019-04-20T15:46:17.286Z,27.78
2019-04-20T15:51:21.707Z,27.63
2019-04-20T15:56:25.594Z,27.67
2019-04-20T16:01:34.589Z,27.66
2019-04-20T16:06:39.236Z,27.78
2019-04-20T16:11:42.825Z,27.90
2019-04-20T16:16:46.592Z,27.53
2019-04-20T16:21:50.139Z,26.83
2019-04-20T16:26:55.722Z,26.38
2019-04-20T16:32:00.498Z,26.18
2019-04-20T16:37:04.348Z,26.53
2019-04-20T16:42:09.569Z,26.36
2019-04-20T16:47:14.253Z,26.21
2019-04-20T16:52:19.075Z,25.66
2019-04-20T16:57:23.673Z,25.31
2019-04-20T17:02:27.363Z,25.17
2019-04-20T17:07:33.230Z,25.02
2019-04-20T17:12:37.590Z,24.65
2019-04-20T17:17:41.236Z,24.34
2019-04-20T17:22:44.674Z,23.87
2019-04-20T17:27:55.569Z,23.80
2019-04-20T17:33:04.208Z,23.47
2019-04-20T17:38:08.981Z,23.44
2019-04-20T17:43:22.068Z,23.21
2019-04-20T17:48:30.388Z,23.03
2019-04-20T17:53:37.441Z,22.86
2019-04-20T17:58:35.046Z,22.58
2019-04-20T18:04:18.726Z,22.42
2019-04-20T18:08:58.366Z,22.26
2019-04-20T18:13:58.876Z,22.10
2019-04-20T18:19:06.194Z,21.84
2019-04-20T18:24:13.727Z,21.56
2019-04-20T18:29:32.520Z,21.28
2019-04-20T18:34:20.634Z,21.13
2019-04-20T18:39:29.256Z,21.00
2019-04-20T18:44:45.609Z,20.52
2019-04-20T18:49:41.041Z,20.52
2019-04-20T18:54:43.722Z,20.39
2019-04-20T18:59:50.466Z,20.38
2019-04-20T19:04:50.067Z,20.09
2019-04-20T19:10:03.874Z,19.71
2019-04-20T19:15:13.463Z,19.72
2019-04-20T19:20:14.035Z,19.44
2019-04-20T19:25:25.654Z,19.19
2019-04-20T19:30:34.402Z,19.04
2019-04-20T19:35:40.444Z,18.93
2019-04-20T19:40:47.898Z,18.62
2019-04-20T19:46:07.412Z,18.55
2019-04-20T19:51:06.905Z,18.47
2019-04-20T19:56:03.498Z,18.39
2019-04-20T20:00:57.799Z,18.04
2019-04-20T20:06:01.555Z,17.98
2019-04-20T20:11:08.475Z,17.83
2019-04-20T20:16:17.913Z,17.58
2019-04-20T20:21:28.740Z,17.49
2019-04-20T20:26:29.153Z,17.27
2019-04-20T20:31:45.393Z,17.11
2019-04-20T20:36:44.020Z,17.08
2019-04-20T20:41:50.381Z,16.95
2019-04-20T20:46:55.141Z,16.84
2019-04-20T20:52:09.806Z,16.68
2019-04-20T20:57:01.445Z,16.52
2019-04-20T21:02:06.491Z,16.44
2019-04-20T21:07:02.812Z,16.39
2019-04-20T21:12:10.889Z,16.30
2019-04-20T21:17:17.768Z,16.13
2019-04-20T21:22:33.605Z,15.96
2019-04-20T21:27:23.793Z,15.77
2019-04-20T21:32:28.236Z,15.72
2019-04-20T21:37:32.745Z,15.58
2019-04-20T21:42:45.545Z,15.52
2019-04-20T21:47:44.720Z,15.34
2019-04-20T21:52:51.963Z,15.16
2019-04-20T21:57:55.387Z,14.97
2019-04-20T22:03:04.107Z,14.85
2019-04-20T22:08:07.885Z,14.69
2019-04-20T22:13:09.964Z,14.64
2019-04-20T22:18:17.814Z,14.51
2019-04-20T22:23:36.538Z,14.36
2019-04-20T22:28:24.391Z,14.27
2019-04-20T22:33:33.594Z,14.25
2019-04-20T22:38:45.183Z,14.07
2019-04-20T22:43:44.594Z,13.87
2019-04-20T22:49:00.710Z,13.86
2019-04-20T22:54:08.549Z,13.80
2019-04-20T22:59:07.428Z,13.62
2019-04-20T23:04:04.392Z,13.61
2019-04-20T23:09:11.699Z,13.49
2019-04-20T23:14:16.255Z,13.38
2019-04-20T23:19:32.293Z,13.30
2019-04-20T23:24:24.998Z,13.29
2019-04-20T23:29:32.659Z,13.29
2019-04-20T23:34:34.566Z,13.24
2019-04-20T23:39:41.583Z,13.01
2019-04-20T23:44:51.264Z,13.03
2019-04-20T23:50:11.317Z,12.77
2019-04-20T23:55:04.349Z,12.71
